Soleil Weather Down

Nearby METAR Reports

 

KCNI - Canton/Cherokee, Georgia, USA
Distance from station: ENE 6mi, 10km
Updated: Mon, 15-Jul-2024 1:15pm EDT
Clear
Clear
 Wind from NNW
Wind: NNW 3 mph , 6 km/h
Temperature: 86°F , 30°C
Heat Index: 92°F , 33°C
Dew Point: 72°F , 22°C
Humidity: 62%
Barometer: 30.10 inHg , 1019.3 hPa
Clouds: Clear
Visibility: 10 miles , 16 km
2024/07/15 17:15 KCNI 151715Z AUTO 34003KT 10SM CLR 30/22 A3010 RMK AO2 LTG DSNT SE T02990222
KRYY - Marietta Mccolum, Georgia, USA
Distance from station: SSW 18mi, 29km
Updated: Mon, 15-Jul-2024 12:50pm EDT
Clear
Clear
 Wind from calm
Wind: Calm
Temperature: 91°F , 33°C
Heat Index: 94°F , 34°C
Dew Point: 66°F , 19°C
Humidity: 44%
Barometer: 30.11 inHg , 1019.6 hPa
Clouds: Clear
Visibility: 10 miles , 16 km
2024/07/15 16:50 KRYY 151650Z 00000KT 10SM CLR 33/19 A3011 RMK AO2 SLP179 T03280194 $
KVPC - Cartersville, Georgia, USA
Distance from station: WSW 22mi, 35km
Updated: Mon, 15-Jul-2024 1:15pm EDT
Clear
Clear
 Wind from calm
Wind: Calm
Temperature: 90°F , 32°C
Heat Index: 97°F , 36°C
Dew Point: 72°F , 22°C
Humidity: 55%
Barometer: 30.07 inHg , 1018.3 hPa
Clouds: Clear
Visibility: 10 miles , 16 km
2024/07/15 17:15 KVPC 151715Z AUTO 00000KT 10SM CLR 32/22 A3007 RMK AO2
 
KMGE - Dobbins Afb/Mari, Georgia, USA
Distance from station: S 24mi, 39km
Updated: Mon, 15-Jul-2024 12:55pm EDT
Mostly cloudy
Mostly cloudy
 Wind from calm
Wind: Calm
Temperature: 91°F , 33°C
Heat Index: 95°F , 35°C
Dew Point: 68°F , 20°C
Humidity: 46%
Barometer: 30.07 inHg , 1018.3 hPa
Clouds: Mostly cloudy
Visibility: 10 miles , 16 km
Cloud details: Few Clouds 7000 ft
Few Clouds 15000 ft
Mostly cloudy 20000 ft
Mostly cloudy 25000 ft
2024/07/15 16:55 KMGE 151655Z 00000KT 10SM FEW070 FEW150 BKN200 BKN250 33/20 A3007 RMK AO2A SLP168 T03270199 $
KPDK - Peachtree/Dekalb, Georgia, USA
Distance from station: SSE 29mi, 47km
Updated: Mon, 15-Jul-2024 12:53pm EDT
Clear
Clear
 Wind from varies
Wind: varies 3 mph , 6 km/h
Temperature: 90°F , 32°C
Heat Index: 92°F , 33°C
Dew Point: 64°F , 18°C
Humidity: 43%
Barometer: 30.09 inHg , 1019 hPa
Clouds: Clear
Visibility: 10 miles , 16 km
2024/07/15 16:53 KPDK 151653Z VRB03KT 10SM CLR 32/18 A3009 RMK AO2 SLP165 T03220178
KFTY - Atlanta/Fulton, Georgia, USA
Distance from station: S 34mi, 54km
Updated: Mon, 15-Jul-2024 12:53pm EDT
Clear
Clear
 Wind from NW
Wind: NW 6 mph , 9 km/h
Temperature: 93°F , 34°C
Heat Index: 96°F , 36°C
Dew Point: 66°F , 19°C
Humidity: 41%
Barometer: 30.08 inHg , 1018.6 hPa
Clouds: Clear
Visibility: 10 miles , 16 km
2024/07/15 16:53 KFTY 151653Z 31005KT 10SM CLR 34/19 A3008 RMK AO2 SLP172 T03390189
 
KPUJ - Atlanta/Paulding, Georgia, USA
Distance from station: SW 34mi, 55km
Updated: Mon, 15-Jul-2024 1:15pm EDT
Clear
Clear
 Wind from N
Wind: N 3 mph , 6 km/h
Temperature: 90°F , 32°C
Heat Index: 92°F , 33°C
Dew Point: 64°F , 18°C
Humidity: 43%
Barometer: 30.10 inHg , 1019.3 hPa
Clouds: Clear
Visibility: 10 miles , 16 km
2024/07/15 17:15 KPUJ 151715Z AUTO 35003KT 10SM CLR 32/18 A3010 RMK AO2
KDNN - Dalton, Georgia, USA
Distance from station: NW 37mi, 59km
Updated: Mon, 15-Jul-2024 1:15pm EDT
Few Clouds
Few Clouds
 Wind from varies
Wind: varies 5 mph , 7 km/h
Temperature: 90°F , 32°C
Heat Index: 99°F , 37°C
Dew Point: 73°F , 23°C
Humidity: 59%
Barometer: 30.05 inHg , 1017.6 hPa
Clouds: Few Clouds
Visibility: 10 miles , 16 km
Cloud details: Few Clouds 14000 ft
2024/07/15 17:15 KDNN 151715Z AUTO VRB04KT 10SM FEW140 32/23 A3005 RMK AO2 T03170227 $
KLZU - Lawrenceville, Georgia, USA
Distance from station: ESE 37mi, 59km
Updated: Mon, 15-Jul-2024 12:56pm EDT
Clear
Clear
 Wind from SW
Wind: SW 6 mph , 9 km/h
Temperature: 91°F , 33°C
Heat Index: 94°F , 34°C
Dew Point: 66°F , 19°C
Humidity: 44%
Barometer: 30.09 inHg , 1019 hPa
Clouds: Clear
Visibility: 10 miles , 16 km
2024/07/15 16:56 KLZU 151656Z 22005KT 10SM CLR 33/19 A3009 RMK AO2 SLP187 T03280194
 
KRMG - Rome, Georgia, USA
Distance from station: W 38mi, 61km
Updated: Mon, 15-Jul-2024 12:53pm EDT
Clear
Clear
 Wind from varies
Wind: varies 3 mph , 6 km/h
Temperature: 90°F , 32°C
Heat Index: 97°F , 36°C
Dew Point: 72°F , 22°C
Humidity: 55%
Barometer: 30.06 inHg , 1017.9 hPa
Clouds: Clear
Visibility: 10 miles , 16 km
2024/07/15 16:53 KRMG 151653Z AUTO VRB03KT 10SM CLR 32/22 A3006 RMK AO2 SLP168 T03220217
KGVL - Gainesville, Georgia, USA
Distance from station: E 39mi, 62km
Updated: Mon, 15-Jul-2024 12:53pm EDT
Clear
Clear
 Wind from W
Wind: W 8 mph , 13 km/h
Temperature: 91°F , 33°C
Heat Index: 94°F , 34°C
Dew Point: 66°F , 19°C
Humidity: 44%
Barometer: 30.12 inHg , 1020 hPa
Clouds: Clear
Visibility: 10 miles , 16 km
2024/07/15 16:53 KGVL 151653Z AUTO 26007KT 10SM CLR 33/19 A3012 RMK AO2 SLP178 T03280194
KATL - Atlanta, Georgia, USA
Distance from station: S 44mi, 71km
Updated: Mon, 15-Jul-2024 12:52pm EDT
Partly cloudy
Partly cloudy
 Wind from W
Wind: W 8 mph , 13 km/h
Temperature: 93°F , 34°C
Heat Index: 99°F , 37°C
Dew Point: 70°F , 21°C
Humidity: 47%
Barometer: 30.09 inHg , 1019 hPa
Clouds: Partly cloudy
Visibility: 10 miles , 16 km
Cloud details: Few Clouds 4600 ft
Few Clouds 8000 ft
Partly cloudy 20000 ft
2024/07/15 16:52 KATL 151652Z 28007KT 10SM FEW046 FEW080 SCT200 34/21 A3009 RMK AO2 SLP175 T03390206